createdAt,value
2023-06-21T00:00:12.914Z,28.45
2023-06-21T00:01:12.987Z,28.45
2023-06-21T00:02:13.066Z,28.44
2023-06-21T00:03:13.184Z,28.45
2023-06-21T00:04:13.194Z,28.44
2023-06-21T00:05:13.221Z,28.45
2023-06-21T00:06:13.271Z,28.44
2023-06-21T00:07:13.311Z,28.47
2023-06-21T00:08:13.334Z,28.44
2023-06-21T00:09:13.381Z,28.44
2023-06-21T00:10:13.437Z,28.43
2023-06-21T00:11:13.510Z,28.44
2023-06-21T00:12:13.604Z,28.44
2023-06-21T00:13:13.660Z,28.44
2023-06-21T00:14:13.756Z,28.45
2023-06-21T00:15:13.817Z,28.43
2023-06-21T00:16:13.833Z,28.43
2023-06-21T00:17:13.865Z,28.43
2023-06-21T00:18:13.897Z,28.43
2023-06-21T00:19:13.969Z,28.41
2023-06-21T00:20:13.994Z,28.44
2023-06-21T00:21:14.019Z,28.44
2023-06-21T00:22:14.020Z,28.41
2023-06-21T00:23:14.020Z,28.41
2023-06-21T00:24:14.032Z,28.40
2023-06-21T00:25:14.028Z,28.43
2023-06-21T00:26:14.023Z,28.43
2023-06-21T00:27:14.048Z,28.44
2023-06-21T00:28:14.044Z,28.40
2023-06-21T00:29:14.052Z,28.38
2023-06-21T00:30:14.052Z,28.40
2023-06-21T00:31:14.087Z,28.38
2023-06-21T00:32:14.084Z,28.41
2023-06-21T00:33:14.084Z,28.37
2023-06-21T00:34:14.089Z,28.37
2023-06-21T00:35:14.103Z,28.40
2023-06-21T00:36:14.103Z,28.41
2023-06-21T00:37:14.134Z,28.40
2023-06-21T00:38:14.112Z,28.38
2023-06-21T00:39:14.133Z,28.37
2023-06-21T00:40:14.136Z,28.38
2023-06-21T00:41:14.208Z,28.37
2023-06-21T00:42:14.173Z,28.40
2023-06-21T00:43:14.206Z,28.40
2023-06-21T00:44:14.281Z,28.37
2023-06-21T00:45:14.317Z,28.37
2023-06-21T00:46:14.444Z,28.35
2023-06-21T00:47:14.353Z,28.34
2023-06-21T00:48:14.362Z,28.35
2023-06-21T00:49:14.357Z,28.34
2023-06-21T00:50:14.358Z,28.37
2023-06-21T00:51:14.369Z,28.33
2023-06-21T00:52:14.392Z,28.37
2023-06-21T00:53:14.386Z,28.34
2023-06-21T00:54:14.398Z,28.34
2023-06-21T00:55:14.440Z,28.34
2023-06-21T00:56:14.433Z,28.33
2023-06-21T00:57:14.455Z,28.33
2023-06-21T00:58:14.453Z,28.31
2023-06-21T00:59:14.453Z,28.33
2023-06-21T01:00:14.484Z,28.30
2023-06-21T01:01:14.481Z,28.30
2023-06-21T01:02:14.513Z,28.30
2023-06-21T01:03:14.470Z,28.30
2023-06-21T01:04:14.472Z,28.30
2023-06-21T01:05:14.624Z,28.30
2023-06-21T01:06:14.515Z,28.31
2023-06-21T01:07:14.527Z,28.30
2023-06-21T01:08:14.532Z,28.26
2023-06-21T01:09:14.535Z,28.28
2023-06-21T01:10:14.554Z,28.28
2023-06-21T01:11:14.570Z,28.30
2023-06-21T01:12:14.614Z,28.26
2023-06-21T01:13:14.590Z,28.27
2023-06-21T01:14:14.589Z,28.26
2023-06-21T01:15:14.601Z,28.27
2023-06-21T01:16:14.609Z,28.26
2023-06-21T01:17:14.661Z,28.26
2023-06-21T01:18:14.648Z,28.28
2023-06-21T01:19:14.687Z,28.28
2023-06-21T01:20:14.671Z,28.27
2023-06-21T01:21:14.676Z,28.26
2023-06-21T01:22:14.686Z,28.26
2023-06-21T01:23:14.696Z,28.26
2023-06-21T01:24:14.723Z,28.24
2023-06-21T01:25:14.710Z,28.26
2023-06-21T01:26:14.716Z,28.24
2023-06-21T01:27:14.728Z,28.24
2023-06-21T01:28:14.726Z,28.26
2023-06-21T01:29:14.760Z,28.23
2023-06-21T01:30:14.758Z,28.23
2023-06-21T01:31:14.758Z,28.23
2023-06-21T01:32:14.756Z,28.23
2023-06-21T01:33:14.761Z,28.24
2023-06-21T01:34:14.767Z,28.23
2023-06-21T01:35:14.760Z,28.23
2023-06-21T01:36:14.765Z,28.21
2023-06-21T01:37:14.776Z,28.23
2023-06-21T01:38:14.779Z,28.23
2023-06-21T01:39:14.797Z,28.21
2023-06-21T01:40:14.809Z,28.21
2023-06-21T01:41:14.818Z,28.23
2023-06-21T01:42:14.840Z,28.21
2023-06-21T01:43:14.842Z,28.20
2023-06-21T01:44:14.861Z,28.21
2023-06-21T01:45:14.869Z,28.18
2023-06-21T01:46:14.902Z,28.17
2023-06-21T01:47:14.905Z,28.17
2023-06-21T01:48:14.883Z,28.17
2023-06-21T01:49:14.910Z,28.17
2023-06-21T01:50:14.952Z,28.18
2023-06-21T01:51:14.968Z,28.18
2023-06-21T01:52:14.954Z,28.16
2023-06-21T01:53:15.014Z,28.17
2023-06-21T01:54:14.988Z,28.17
2023-06-21T01:55:15.010Z,28.17
2023-06-21T01:56:15.017Z,28.18
2023-06-21T01:57:15.038Z,28.16
2023-06-21T01:58:15.071Z,28.14
2023-06-21T01:59:15.122Z,28.16
2023-06-21T02:00:15.144Z,28.17
2023-06-21T02:01:15.130Z,28.16
2023-06-21T02:02:15.157Z,28.16
2023-06-21T02:03:15.155Z,28.13
2023-06-21T02:04:15.184Z,28.14
2023-06-21T02:05:15.277Z,28.14
2023-06-21T02:06:15.233Z,28.14
2023-06-21T02:07:15.310Z,28.16
2023-06-21T02:08:15.305Z,28.14
2023-06-21T02:09:15.303Z,28.14
2023-06-21T02:10:15.327Z,28.14
2023-06-21T02:11:15.353Z,28.11
2023-06-21T02:12:15.380Z,28.16
2023-06-21T02:13:15.405Z,28.14
2023-06-21T02:14:15.437Z,28.13
2023-06-21T02:15:15.457Z,28.14
2023-06-21T02:16:15.476Z,28.13
2023-06-21T02:17:15.519Z,28.13
2023-06-21T02:18:15.551Z,28.13
2023-06-21T02:19:15.570Z,28.14
2023-06-21T02:20:15.614Z,28.13
2023-06-21T02:21:15.619Z,28.14
2023-06-21T02:22:15.660Z,28.14
2023-06-21T02:23:15.664Z,28.13
2023-06-21T02:24:15.699Z,28.11
2023-06-21T02:25:15.722Z,28.13
2023-06-21T02:26:15.789Z,28.13
2023-06-21T02:27:15.798Z,28.13
2023-06-21T02:28:15.802Z,28.13
2023-06-21T02:29:15.835Z,28.13
2023-06-21T02:30:15.890Z,28.11
2023-06-21T02:31:15.915Z,28.11
2023-06-21T02:32:15.944Z,28.09
2023-06-21T02:33:16.020Z,28.10
2023-06-21T02:34:15.991Z,28.10
2023-06-21T02:35:16.040Z,28.09
2023-06-21T02:36:16.063Z,28.11
2023-06-21T02:37:16.097Z,28.09
2023-06-21T02:38:16.136Z,28.11
2023-06-21T02:39:16.164Z,28.10
2023-06-21T02:40:16.192Z,28.10
2023-06-21T02:41:16.219Z,28.11
2023-06-21T02:42:16.267Z,28.11
2023-06-21T02:43:16.272Z,28.11
2023-06-21T02:44:16.311Z,28.11
2023-06-21T02:45:16.377Z,28.10
2023-06-21T02:46:16.383Z,28.10
2023-06-21T02:47:16.397Z,28.11
2023-06-21T02:48:16.456Z,28.10
2023-06-21T02:49:16.477Z,28.10
2023-06-21T02:50:16.493Z,28.09
2023-06-21T02:51:16.525Z,28.10
2023-06-21T02:52:16.591Z,28.11
2023-06-21T02:53:16.577Z,28.09
2023-06-21T02:54:16.611Z,28.09
2023-06-21T02:55:16.630Z,28.10
2023-06-21T02:56:16.668Z,28.09
2023-06-21T02:57:16.705Z,28.09
2023-06-21T02:58:16.732Z,28.10
2023-06-21T02:59:16.755Z,28.10
2023-06-21T03:00:16.786Z,28.09
2023-06-21T03:01:16.853Z,28.09
2023-06-21T03:02:16.858Z,28.09
2023-06-21T03:03:16.951Z,28.07
2023-06-21T03:04:16.915Z,28.07
2023-06-21T03:05:16.955Z,28.07
2023-06-21T03:06:16.974Z,28.09
2023-06-21T03:07:17.036Z,28.09
2023-06-21T03:08:17.065Z,28.10
2023-06-21T03:09:17.224Z,28.07
2023-06-21T03:10:17.151Z,28.09
2023-06-21T03:11:17.153Z,28.09
2023-06-21T03:12:17.194Z,28.09
2023-06-21T03:13:17.220Z,28.07
2023-06-21T03:14:17.240Z,28.06
2023-06-21T03:15:17.328Z,28.06
2023-06-21T03:16:17.319Z,28.07
2023-06-21T03:17:17.367Z,28.06
2023-06-21T03:18:17.399Z,28.07
2023-06-21T03:19:17.442Z,28.01
2023-06-21T03:20:17.468Z,28.01
2023-06-21T03:21:17.490Z,28.04
2023-06-21T03:22:17.529Z,28.04
2023-06-21T03:23:17.557Z,28.04
2023-06-21T03:24:17.661Z,28.03
2023-06-21T03:25:17.598Z,28.04
2023-06-21T03:26:17.632Z,28.01
2023-06-21T03:27:17.645Z,28.03
2023-06-21T03:28:17.639Z,28.03
2023-06-21T03:29:17.655Z,28.04
2023-06-21T03:30:17.675Z,28.04
2023-06-21T03:31:17.715Z,28.04
2023-06-21T03:32:17.713Z,28.04
2023-06-21T03:33:17.711Z,28.03
2023-06-21T03:34:17.730Z,28.04
2023-06-21T03:35:17.746Z,28.03
2023-06-21T03:36:17.760Z,28.04
2023-06-21T03:37:17.791Z,28.00
2023-06-21T03:38:17.781Z,28.01
2023-06-21T03:39:17.795Z,28.01
2023-06-21T03:40:17.816Z,28.01
2023-06-21T03:41:17.824Z,28.00
2023-06-21T03:42:17.826Z,27.99
2023-06-21T03:43:17.852Z,27.97
2023-06-21T03:44:17.879Z,27.99
2023-06-21T03:45:17.874Z,27.99
2023-06-21T03:46:17.933Z,27.99
2023-06-21T03:47:17.915Z,27.99
2023-06-21T03:48:18.100Z,28.00
2023-06-21T03:49:17.978Z,27.99
2023-06-21T03:50:18.018Z,27.99
2023-06-21T03:51:18.054Z,28.00
2023-06-21T03:52:18.110Z,27.99
2023-06-21T03:53:18.149Z,28.00
2023-06-21T03:54:18.186Z,27.99
2023-06-21T03:55:18.224Z,27.99
2023-06-21T03:56:18.260Z,27.99
2023-06-21T03:57:18.305Z,28.00
2023-06-21T03:58:18.340Z,27.97
2023-06-21T03:59:18.405Z,27.97
2023-06-21T04:00:18.466Z,27.97
2023-06-21T04:01:18.521Z,27.99
2023-06-21T04:02:18.482Z,27.97
2023-06-21T04:03:18.583Z,27.96
2023-06-21T04:04:18.488Z,27.96
2023-06-21T04:05:18.525Z,27.96
2023-06-21T04:06:18.514Z,27.97
2023-06-21T04:07:20.919Z,27.96
2023-06-21T04:08:18.551Z,27.97
2023-06-21T04:09:18.561Z,28.00
2023-06-21T04:10:18.597Z,27.99
2023-06-21T04:11:18.599Z,27.97
2023-06-21T04:12:18.631Z,27.95
2023-06-21T04:13:18.678Z,27.95
2023-06-21T04:14:18.637Z,27.96
2023-06-21T04:15:18.680Z,27.96
2023-06-21T04:16:18.676Z,27.95
2023-06-21T04:17:18.711Z,27.97
2023-06-21T04:18:18.708Z,27.97
2023-06-21T04:19:18.707Z,27.95
2023-06-21T04:20:18.742Z,27.97
2023-06-21T04:21:18.753Z,27.96
2023-06-21T04:22:18.792Z,27.97
2023-06-21T04:23:18.784Z,27.97
2023-06-21T04:24:18.884Z,27.96
2023-06-21T04:25:18.843Z,27.99
2023-06-21T04:26:18.865Z,27.95
2023-06-21T04:27:18.860Z,27.96
2023-06-21T04:28:18.897Z,27.92
2023-06-21T04:29:18.894Z,27.95
2023-06-21T04:30:18.943Z,27.96
2023-06-21T04:31:18.969Z,27.95
2023-06-21T04:32:18.979Z,27.93
2023-06-21T04:33:18.994Z,27.96
2023-06-21T04:34:19.018Z,27.95
2023-06-21T04:35:19.050Z,27.96
2023-06-21T04:36:19.041Z,27.95
2023-06-21T04:37:19.049Z,27.96
2023-06-21T04:38:19.069Z,27.95
2023-06-21T04:39:19.087Z,27.95
2023-06-21T04:40:19.831Z,27.96
2023-06-21T04:41:19.118Z,27.97
2023-06-21T04:42:19.136Z,27.95
2023-06-21T04:43:19.142Z,27.95
2023-06-21T04:44:19.163Z,27.96
2023-06-21T04:45:19.168Z,27.95
2023-06-21T04:46:19.461Z,27.95
2023-06-21T04:47:19.195Z,27.96
2023-06-21T04:48:19.220Z,27.96
2023-06-21T04:49:19.234Z,27.95
2023-06-21T04:50:21.428Z,27.93
2023-06-21T04:51:19.248Z,27.96
2023-06-21T04:52:19.275Z,27.95
2023-06-21T04:53:19.308Z,27.96
2023-06-21T04:54:19.366Z,27.95
2023-06-21T04:55:19.530Z,27.95
2023-06-21T04:56:19.349Z,27.95
2023-06-21T04:57:19.378Z,27.96
2023-06-21T04:58:19.387Z,27.97
2023-06-21T04:59:19.423Z,27.95
2023-06-21T05:00:19.417Z,27.93
2023-06-21T05:01:19.448Z,27.95
2023-06-21T05:02:19.475Z,27.92
2023-06-21T05:03:19.532Z,27.95
2023-06-21T05:04:19.507Z,27.95
2023-06-21T05:05:19.536Z,27.95
2023-06-21T05:06:19.534Z,27.95
2023-06-21T05:07:19.594Z,27.95
2023-06-21T05:08:19.574Z,27.93
2023-06-21T05:09:19.594Z,27.95
2023-06-21T05:10:19.611Z,27.95
2023-06-21T05:11:19.630Z,27.92
2023-06-21T05:12:19.651Z,27.96
2023-06-21T05:13:19.653Z,27.96
2023-06-21T05:14:19.674Z,27.95
2023-06-21T05:15:19.692Z,27.96
2023-06-21T05:16:19.718Z,27.96
2023-06-21T05:17:19.735Z,27.95
2023-06-21T05:18:19.742Z,27.96
2023-06-21T05:19:19.760Z,27.96
2023-06-21T05:20:19.781Z,27.97
2023-06-21T05:21:19.794Z,27.96
2023-06-21T05:22:19.818Z,27.95
2023-06-21T05:23:19.822Z,27.96
2023-06-21T05:24:19.887Z,27.95
2023-06-21T05:25:19.866Z,27.96
2023-06-21T05:26:19.869Z,27.95
2023-06-21T05:27:19.907Z,27.93
2023-06-21T05:28:19.900Z,27.92
2023-06-21T05:29:19.930Z,27.95
2023-06-21T05:30:19.932Z,27.93
2023-06-21T05:31:19.956Z,27.89
2023-06-21T05:32:20.039Z,27.89
2023-06-21T05:33:19.964Z,27.89
2023-06-21T05:34:19.985Z,27.92
2023-06-21T05:35:20.094Z,27.93
2023-06-21T05:36:20.041Z,27.95
2023-06-21T05:37:20.045Z,27.99
2023-06-21T05:38:20.090Z,27.96
2023-06-21T05:39:20.112Z,27.99
2023-06-21T05:40:20.125Z,28.03
2023-06-21T05:41:20.133Z,28.03
2023-06-21T05:42:20.156Z,28.00
2023-06-21T05:43:20.168Z,28.04
2023-06-21T05:44:20.247Z,28.10
2023-06-21T05:45:20.203Z,28.09
2023-06-21T05:46:20.331Z,28.11
2023-06-21T05:47:20.262Z,28.16
2023-06-21T05:48:20.248Z,28.18
2023-06-21T05:49:20.285Z,28.23
2023-06-21T05:50:20.395Z,28.23
2023-06-21T05:51:20.278Z,28.30
2023-06-21T05:52:20.316Z,28.26
2023-06-21T05:53:20.316Z,28.28
2023-06-21T05:54:20.325Z,28.28
2023-06-21T05:55:20.326Z,28.34
2023-06-21T05:56:20.353Z,28.35
2023-06-21T05:57:20.389Z,28.35
2023-06-21T05:58:20.389Z,28.34
2023-06-21T05:59:20.585Z,28.38
2023-06-21T06:00:20.442Z,28.40
2023-06-21T06:01:25.422Z,28.38
2023-06-21T06:02:21.541Z,28.41
2023-06-21T06:03:20.604Z,28.44
2023-06-21T06:04:20.659Z,28.47
2023-06-21T06:05:20.515Z,28.51
2023-06-21T06:06:20.768Z,28.54
2023-06-21T06:07:20.547Z,28.51
2023-06-21T06:08:20.584Z,28.54
2023-06-21T06:09:20.559Z,28.58
2023-06-21T06:10:20.579Z,28.56
2023-06-21T06:11:20.626Z,28.61
2023-06-21T06:12:20.706Z,28.62
2023-06-21T06:13:20.698Z,28.66
2023-06-21T06:14:20.884Z,28.66
2023-06-21T06:15:20.837Z,28.72
2023-06-21T06:16:20.972Z,28.71
2023-06-21T06:17:20.912Z,28.72
2023-06-21T06:18:20.902Z,28.82
2023-06-21T06:19:20.872Z,28.76
2023-06-21T06:20:20.901Z,28.75
2023-06-21T06:21:20.928Z,28.75
2023-06-21T06:22:20.928Z,28.79
2023-06-21T06:23:20.923Z,28.81
2023-06-21T06:24:20.985Z,28.79
2023-06-21T06:25:20.999Z,28.85
2023-06-21T06:26:21.241Z,28.86
2023-06-21T06:27:21.023Z,28.86
2023-06-21T06:28:21.096Z,28.90
2023-06-21T06:29:21.062Z,28.95
2023-06-21T06:30:21.052Z,28.89
2023-06-21T06:31:21.092Z,28.95
2023-06-21T06:32:21.156Z,28.98
2023-06-21T06:33:21.053Z,28.96
2023-06-21T06:34:21.060Z,28.96
2023-06-21T06:35:21.066Z,29.00
2023-06-21T06:36:21.102Z,29.00
2023-06-21T06:37:23.824Z,29.05
2023-06-21T06:38:22.101Z,29.00
2023-06-21T06:39:21.132Z,28.93
2023-06-21T06:40:21.110Z,28.82
2023-06-21T06:41:21.126Z,28.79
2023-06-21T06:42:21.203Z,28.66
2023-06-21T06:43:21.129Z,28.52
2023-06-21T06:44:21.165Z,28.52
2023-06-21T06:45:21.150Z,28.58
2023-06-21T06:46:21.283Z,28.68
2023-06-21T06:47:21.274Z,28.62
2023-06-21T06:48:21.308Z,28.65
2023-06-21T06:49:21.375Z,28.69
2023-06-21T06:50:21.436Z,28.73
2023-06-21T06:51:21.502Z,28.76
2023-06-21T06:52:21.672Z,28.81
2023-06-21T06:53:21.668Z,28.86
2023-06-21T06:54:21.713Z,28.92
2023-06-21T06:55:21.766Z,28.96
2023-06-21T06:56:21.859Z,29.02
2023-06-21T06:57:30.625Z,29.02
2023-06-21T06:58:22.947Z,29.05
2023-06-21T06:59:21.980Z,29.11
2023-06-21T07:00:21.847Z,29.14
2023-06-21T07:01:21.880Z,29.11
2023-06-21T07:02:21.926Z,29.14
2023-06-21T07:03:21.990Z,29.17
2023-06-21T07:04:21.983Z,29.16
2023-06-21T07:05:22.015Z,29.20
2023-06-21T07:06:21.880Z,29.24
2023-06-21T07:07:21.878Z,29.24
2023-06-21T07:08:21.946Z,29.24
2023-06-21T07:09:21.906Z,29.27
2023-06-21T07:10:21.911Z,29.28
2023-06-21T07:11:21.919Z,29.33
2023-06-21T07:12:21.948Z,29.30
2023-06-21T07:13:21.952Z,29.33
2023-06-21T07:14:21.947Z,29.33
2023-06-21T07:15:24.148Z,29.41
2023-06-21T07:16:21.944Z,29.44
2023-06-21T07:17:22.039Z,29.38
2023-06-21T07:18:22.011Z,29.47
2023-06-21T07:19:22.045Z,29.47
2023-06-21T07:20:21.996Z,29.48
2023-06-21T07:21:23.615Z,29.53
2023-06-21T07:22:21.973Z,29.54
2023-06-21T07:23:22.007Z,29.54
2023-06-21T07:24:21.972Z,29.57
2023-06-21T07:25:21.980Z,29.55
2023-06-21T07:26:25.300Z,29.60
2023-06-21T07:27:22.148Z,29.51
2023-06-21T07:28:21.980Z,29.43
2023-06-21T07:29:22.013Z,29.53
2023-06-21T07:30:21.995Z,29.60
2023-06-21T07:31:22.105Z,29.54
2023-06-21T07:32:22.013Z,29.57
2023-06-21T07:33:22.104Z,29.64
2023-06-21T07:34:21.996Z,29.65
2023-06-21T07:35:21.982Z,29.67
2023-06-21T07:36:22.048Z,29.68
2023-06-21T07:37:22.018Z,29.72
2023-06-21T07:38:21.993Z,29.75
2023-06-21T07:39:21.977Z,29.72
2023-06-21T07:40:21.960Z,29.72
2023-06-21T07:41:21.947Z,29.72
2023-06-21T07:42:21.964Z,29.72
2023-06-21T07:43:22.025Z,29.71
2023-06-21T07:44:21.948Z,29.72
2023-06-21T07:45:22.021Z,29.71
2023-06-21T07:46:22.049Z,29.69
2023-06-21T07:47:22.095Z,29.71
2023-06-21T07:48:22.038Z,29.71
2023-06-21T07:49:21.938Z,29.71
2023-06-21T07:50:23.116Z,29.68
2023-06-21T07:51:22.120Z,29.65
2023-06-21T07:52:22.041Z,29.63
2023-06-21T07:53:21.949Z,29.67
2023-06-21T07:54:21.942Z,29.61
2023-06-21T07:55:21.938Z,29.55
2023-06-21T07:56:21.956Z,29.63
2023-06-21T07:57:22.051Z,29.54
2023-06-21T07:58:21.944Z,29.51
2023-06-21T07:59:21.970Z,29.53
2023-06-21T08:00:21.946Z,29.53
2023-06-21T08:01:21.980Z,29.50
2023-06-21T08:02:22.104Z,29.47
2023-06-21T08:03:21.987Z,29.48
2023-06-21T08:04:21.962Z,29.53
2023-06-21T08:05:21.989Z,29.57
2023-06-21T08:06:21.958Z,29.55
2023-06-21T08:07:24.185Z,29.60
2023-06-21T08:08:21.941Z,29.61
2023-06-21T08:09:21.927Z,29.63
2023-06-21T08:10:21.942Z,29.68
2023-06-21T08:11:21.903Z,29.69
2023-06-21T08:12:21.896Z,29.76
2023-06-21T08:13:21.906Z,29.76
2023-06-21T08:14:21.903Z,29.81
2023-06-21T08:15:21.876Z,29.86
2023-06-21T08:16:21.878Z,29.85
2023-06-21T08:17:21.964Z,29.83
2023-06-21T08:18:21.923Z,29.88
2023-06-21T08:19:21.888Z,29.88
2023-06-21T08:20:21.913Z,29.91
2023-06-21T08:21:21.893Z,29.91
2023-06-21T08:22:21.893Z,29.89
2023-06-21T08:23:21.934Z,29.86
2023-06-21T08:24:21.951Z,29.92
2023-06-21T08:25:21.897Z,29.91
2023-06-21T08:26:21.906Z,29.89
2023-06-21T08:27:21.865Z,29.86
2023-06-21T08:28:21.906Z,29.92
2023-06-21T08:29:21.869Z,29.95
2023-06-21T08:30:21.886Z,29.96
2023-06-21T08:31:21.875Z,29.93
2023-06-21T08:32:21.904Z,29.99
2023-06-21T08:33:21.937Z,30.01
2023-06-21T08:34:22.002Z,30.01
2023-06-21T08:35:22.033Z,30.03
2023-06-21T08:36:22.114Z,30.01
2023-06-21T08:37:22.147Z,29.98
2023-06-21T08:38:28.268Z,29.98
2023-06-21T08:39:23.236Z,29.93
2023-06-21T08:40:22.186Z,29.91
2023-06-21T08:41:22.197Z,29.89
2023-06-21T08:42:22.184Z,29.86
2023-06-21T08:43:22.287Z,29.88
2023-06-21T08:44:22.221Z,29.85
2023-06-21T08:45:22.227Z,29.83
2023-06-21T08:46:22.264Z,29.85
2023-06-21T08:47:22.278Z,29.91
2023-06-21T08:48:22.207Z,29.85
2023-06-21T08:49:22.315Z,29.83
2023-06-21T08:50:22.351Z,29.83
2023-06-21T08:51:22.241Z,29.83
2023-06-21T08:52:22.206Z,29.86
2023-06-21T08:53:22.232Z,29.83
2023-06-21T08:54:22.202Z,29.81
2023-06-21T08:55:22.209Z,29.81
2023-06-21T08:56:22.216Z,29.79
2023-06-21T08:57:22.208Z,29.78
2023-06-21T08:58:22.213Z,29.76
2023-06-21T08:59:22.226Z,29.78
2023-06-21T09:00:22.325Z,29.76
2023-06-21T09:01:22.214Z,29.72
2023-06-21T09:02:22.308Z,29.74
2023-06-21T09:03:22.409Z,29.74
2023-06-21T09:04:22.419Z,29.72
2023-06-21T09:05:22.188Z,29.71
2023-06-21T09:06:22.198Z,29.71
2023-06-21T09:07:22.215Z,29.72
2023-06-21T09:08:22.194Z,29.71
2023-06-21T09:09:22.173Z,29.71
2023-06-21T09:10:22.194Z,29.69
2023-06-21T09:11:22.282Z,29.69
2023-06-21T09:12:22.168Z,29.69
2023-06-21T09:13:22.186Z,29.69
2023-06-21T09:14:22.264Z,29.69
2023-06-21T09:15:22.131Z,29.71
2023-06-21T09:16:22.234Z,29.71
2023-06-21T09:17:22.215Z,29.71
2023-06-21T09:18:22.143Z,29.72
2023-06-21T09:19:22.147Z,29.71
2023-06-21T09:20:22.176Z,29.71
2023-06-21T09:21:22.225Z,29.71
2023-06-21T09:22:22.187Z,29.71
2023-06-21T09:23:22.210Z,29.69
2023-06-21T09:24:22.206Z,29.69
2023-06-21T09:25:22.204Z,29.71
2023-06-21T09:26:22.231Z,29.71
2023-06-21T09:27:22.196Z,29.68
2023-06-21T09:28:22.219Z,29.72
2023-06-21T09:29:22.189Z,29.71
2023-06-21T09:30:35.985Z,29.71
2023-06-21T09:31:23.187Z,29.74
2023-06-21T09:32:22.254Z,29.68
2023-06-21T09:33:22.246Z,29.68
2023-06-21T09:34:22.155Z,29.71
2023-06-21T09:35:22.135Z,29.69
2023-06-21T09:36:22.187Z,29.71
2023-06-21T09:37:22.144Z,29.72
2023-06-21T09:38:22.161Z,29.69
2023-06-21T09:39:22.111Z,29.71
2023-06-21T09:40:22.109Z,29.71
2023-06-21T09:41:22.116Z,29.71
2023-06-21T09:42:22.152Z,29.72
2023-06-21T09:43:22.266Z,29.69
2023-06-21T09:44:22.125Z,29.67
2023-06-21T09:45:22.118Z,29.75
2023-06-21T09:46:22.088Z,29.79
2023-06-21T09:47:22.202Z,29.81
2023-06-21T09:48:22.249Z,29.82
2023-06-21T09:49:22.254Z,29.88
2023-06-21T09:50:22.102Z,29.89
2023-06-21T09:51:22.061Z,29.91
2023-06-21T09:52:22.059Z,29.91
2023-06-21T09:53:22.064Z,29.96
2023-06-21T09:54:22.060Z,30.03
2023-06-21T09:55:22.050Z,30.03
2023-06-21T09:56:22.024Z,30.08
2023-06-21T09:57:22.016Z,30.09
2023-06-21T09:58:22.058Z,30.13
2023-06-21T09:59:22.022Z,30.15
2023-06-21T10:00:22.039Z,30.20
2023-06-21T10:01:22.110Z,30.22
2023-06-21T10:02:22.160Z,30.20
2023-06-21T10:03:22.203Z,30.23
2023-06-21T10:04:22.128Z,30.27
2023-06-21T10:05:22.082Z,30.29
2023-06-21T10:06:22.081Z,30.29
2023-06-21T10:07:22.075Z,30.30
2023-06-21T10:08:22.100Z,30.36
2023-06-21T10:09:22.092Z,30.33
2023-06-21T10:10:22.047Z,30.33
2023-06-21T10:11:22.060Z,30.37
2023-06-21T10:12:22.062Z,30.41
2023-06-21T10:13:22.166Z,30.40
2023-06-21T10:14:22.083Z,30.44
2023-06-21T10:15:22.073Z,30.44
2023-06-21T10:16:22.027Z,30.46
2023-06-21T10:17:22.029Z,30.43
2023-06-21T10:18:22.059Z,30.46
2023-06-21T10:19:21.999Z,30.41
2023-06-21T10:20:21.980Z,30.43
2023-06-21T10:21:21.969Z,30.47
2023-06-21T10:22:22.053Z,30.36
2023-06-21T10:23:21.972Z,30.41
2023-06-21T10:24:22.008Z,30.38
2023-06-21T10:25:22.049Z,30.44
2023-06-21T10:26:22.088Z,30.44
2023-06-21T10:27:22.171Z,30.43
2023-06-21T10:28:22.221Z,30.47
2023-06-21T10:29:22.264Z,30.37
2023-06-21T10:30:22.259Z,30.46
2023-06-21T10:31:22.409Z,30.43
2023-06-21T10:32:22.378Z,30.46
2023-06-21T10:33:22.483Z,30.47
2023-06-21T10:34:22.432Z,30.47
2023-06-21T10:35:22.510Z,30.41
2023-06-21T10:36:22.540Z,30.48
2023-06-21T10:37:22.557Z,30.38
2023-06-21T10:38:22.570Z,30.53
2023-06-21T10:39:22.552Z,30.54
2023-06-21T10:40:22.559Z,30.58
2023-06-21T10:41:22.526Z,30.63
2023-06-21T10:42:22.517Z,30.61
2023-06-21T10:43:22.513Z,30.60
2023-06-21T10:44:24.751Z,30.56
2023-06-21T10:45:22.664Z,30.56
2023-06-21T10:46:22.669Z,30.56
2023-06-21T10:47:22.822Z,30.53
2023-06-21T10:48:22.664Z,30.56
2023-06-21T10:49:22.680Z,30.54
2023-06-21T10:50:22.747Z,30.53
2023-06-21T10:51:22.632Z,30.50
2023-06-21T10:52:22.645Z,30.51
2023-06-21T10:53:23.231Z,30.47
2023-06-21T10:54:22.675Z,30.48
2023-06-21T10:55:22.653Z,30.47
2023-06-21T10:56:22.612Z,30.46
2023-06-21T10:57:22.603Z,30.44
2023-06-21T10:58:22.606Z,30.44
2023-06-21T10:59:22.579Z,30.43
2023-06-21T11:00:22.575Z,30.44
2023-06-21T11:01:22.607Z,30.41
2023-06-21T11:02:22.623Z,30.40
2023-06-21T11:03:22.537Z,30.40
2023-06-21T11:04:22.555Z,30.37
2023-06-21T11:05:22.670Z,30.38
2023-06-21T11:06:22.547Z,30.37
2023-06-21T11:07:22.531Z,30.34
2023-06-21T11:08:22.522Z,30.36
2023-06-21T11:09:22.534Z,30.36
2023-06-21T11:10:22.493Z,30.33
2023-06-21T11:11:22.488Z,30.34
2023-06-21T11:12:22.485Z,30.31
2023-06-21T11:13:22.683Z,30.34
2023-06-21T11:14:22.478Z,30.36
2023-06-21T11:15:22.459Z,30.37
2023-06-21T11:16:22.466Z,30.37
2023-06-21T11:17:22.490Z,30.36
2023-06-21T11:18:22.505Z,30.36
2023-06-21T11:19:22.438Z,30.38
2023-06-21T11:20:22.429Z,30.38
2023-06-21T11:21:22.443Z,30.36
2023-06-21T11:22:22.419Z,30.38
2023-06-21T11:23:22.464Z,30.36
2023-06-21T11:24:22.539Z,30.40
2023-06-21T11:25:22.591Z,30.36
2023-06-21T11:26:22.825Z,30.34
2023-06-21T11:27:22.660Z,30.36
2023-06-21T11:28:22.806Z,30.34
2023-06-21T11:29:23.026Z,30.34
2023-06-21T11:30:22.844Z,30.34
2023-06-21T11:31:23.107Z,30.34
2023-06-21T11:32:22.940Z,30.31
2023-06-21T11:33:22.975Z,30.30
2023-06-21T11:34:23.051Z,30.31
2023-06-21T11:35:23.027Z,30.33
2023-06-21T11:36:22.984Z,30.31
2023-06-21T11:37:23.055Z,30.31
2023-06-21T11:38:22.996Z,30.30
2023-06-21T11:39:22.966Z,30.31
2023-06-21T11:40:22.963Z,30.31
2023-06-21T11:41:23.005Z,30.29
2023-06-21T11:42:22.925Z,30.29
2023-06-21T11:43:22.922Z,30.29
2023-06-21T11:44:23.001Z,30.31
2023-06-21T11:45:22.979Z,30.29
2023-06-21T11:46:23.037Z,30.29
2023-06-21T11:47:23.103Z,30.26
2023-06-21T11:48:23.112Z,30.23
2023-06-21T11:49:23.181Z,30.23
2023-06-21T11:50:23.248Z,30.26
2023-06-21T11:51:23.279Z,30.26
2023-06-21T11:52:23.306Z,30.24
2023-06-21T11:53:23.391Z,30.24
2023-06-21T11:54:23.427Z,30.23
2023-06-21T11:55:23.487Z,30.23
2023-06-21T11:56:23.535Z,30.23
2023-06-21T11:57:23.706Z,30.20
2023-06-21T11:58:23.666Z,30.23
2023-06-21T11:59:23.705Z,30.19
2023-06-21T12:00:23.805Z,30.19
2023-06-21T12:01:23.832Z,30.19
2023-06-21T12:02:23.915Z,30.18
2023-06-21T12:03:24.038Z,30.18
2023-06-21T12:04:24.183Z,30.18
2023-06-21T12:05:24.154Z,30.19
2023-06-21T12:06:24.069Z,30.16
2023-06-21T12:07:24.088Z,30.18
2023-06-21T12:08:24.073Z,30.18
2023-06-21T12:09:24.066Z,30.15
2023-06-21T12:10:24.028Z,30.15
2023-06-21T12:11:24.061Z,30.16
2023-06-21T12:12:24.081Z,30.13
2023-06-21T12:13:24.030Z,30.12
2023-06-21T12:14:24.050Z,30.13
2023-06-21T12:15:24.034Z,30.13
2023-06-21T12:16:24.206Z,30.15
2023-06-21T12:17:24.858Z,30.13
2023-06-21T12:18:24.219Z,30.13
2023-06-21T12:19:24.262Z,30.12
2023-06-21T12:20:24.248Z,30.10
2023-06-21T12:21:24.264Z,30.10
2023-06-21T12:22:24.251Z,30.09
2023-06-21T12:23:24.246Z,30.10
2023-06-21T12:24:24.223Z,30.10
2023-06-21T12:25:24.224Z,30.09
2023-06-21T12:26:24.228Z,30.09
2023-06-21T12:27:24.253Z,30.09
2023-06-21T12:28:24.240Z,30.08
2023-06-21T12:29:24.314Z,30.08
2023-06-21T12:30:24.352Z,30.05
2023-06-21T12:31:24.507Z,30.08
2023-06-21T12:32:24.549Z,30.03
2023-06-21T12:33:24.545Z,30.06
2023-06-21T12:34:24.691Z,30.05
2023-06-21T12:35:24.697Z,30.03
2023-06-21T12:36:24.774Z,30.05
2023-06-21T12:37:24.794Z,30.01
2023-06-21T12:38:24.792Z,30.03
2023-06-21T12:39:24.787Z,30.02
2023-06-21T12:40:24.827Z,30.03
2023-06-21T12:41:24.766Z,30.05
2023-06-21T12:42:24.744Z,30.02
2023-06-21T12:43:24.735Z,30.02
2023-06-21T12:44:24.729Z,30.02
2023-06-21T12:45:24.754Z,30.01
2023-06-21T12:46:24.741Z,29.99
2023-06-21T12:47:24.801Z,29.99
2023-06-21T12:48:24.815Z,29.99
2023-06-21T12:49:24.825Z,29.96
2023-06-21T12:50:24.967Z,29.98
2023-06-21T12:51:25.035Z,29.98
2023-06-21T12:52:24.782Z,29.98